sensor_id;sensor_type;location;lat;lon;timestamp;pressure;altitude;pressure_sealevel;temperature;humidity
84663;BME280;74891;59.208;18.220;2024-01-30T00:00:03;102338.47;;;1.28;88.33
84663;BME280;74891;59.208;18.220;2024-01-30T00:02:30;102330.69;;;1.28;87.15
84663;BME280;74891;59.208;18.220;2024-01-30T00:04:55;102289.19;;;1.07;88.62
84663;BME280;74891;59.208;18.220;2024-01-30T00:07:21;102321.66;;;1.23;87.84
84663;BME280;74891;59.208;18.220;2024-01-30T00:09:47;102337.31;;;1.21;87.69
84663;BME280;74891;59.208;18.220;2024-01-30T00:12:14;102325.13;;;1.12;87.98
84663;BME280;74891;59.208;18.220;2024-01-30T00:14:45;102329.09;;;1.16;88.45
84663;BME280;74891;59.208;18.220;2024-01-30T00:17:14;102295.25;;;0.97;88.31
84663;BME280;74891;59.208;18.220;2024-01-30T00:19:39;102325.69;;;1.16;87.56
84663;BME280;74891;59.208;18.220;2024-01-30T00:22:05;102320.38;;;1.17;87.62
84663;BME280;74891;59.208;18.220;2024-01-30T00:24:30;102315.44;;;1.14;87.85
84663;BME280;74891;59.208;18.220;2024-01-30T00:26:56;102312.16;;;1.12;88.07
84663;BME280;74891;59.208;18.220;2024-01-30T00:29:21;102317.19;;;1.14;88.17
84663;BME280;74891;59.208;18.220;2024-01-30T00:31:48;102317.34;;;1.12;88.10
84663;BME280;74891;59.208;18.220;2024-01-30T00:34:13;102315.94;;;1.08;87.50
84663;BME280;74891;59.208;18.220;2024-01-30T00:36:39;102311.00;;;1.05;88.49
84663;BME280;74891;59.208;18.220;2024-01-30T00:39:04;102309.63;;;1.01;87.98
84663;BME280;74891;59.208;18.220;2024-01-30T00:41:32;102286.38;;;0.78;88.22
84663;BME280;74891;59.208;18.220;2024-01-30T00:43:57;102305.31;;;0.90;88.59
84663;BME280;74891;59.208;18.220;2024-01-30T00:46:23;102315.28;;;0.95;89.03
84663;BME280;74891;59.208;18.220;2024-01-30T00:48:48;102307.66;;;0.93;88.48
84663;BME280;74891;59.208;18.220;2024-01-30T00:51:14;102305.19;;;0.92;88.28
84663;BME280;74891;59.208;18.220;2024-01-30T00:53:40;102283.94;;;0.77;87.85
84663;BME280;74891;59.208;18.220;2024-01-30T00:56:07;102322.41;;;0.93;88.78
84663;BME280;74891;59.208;18.220;2024-01-30T00:58:34;102316.06;;;0.85;88.55
84663;BME280;74891;59.208;18.220;2024-01-30T01:01:00;102315.09;;;0.86;88.33
84663;BME280;74891;59.208;18.220;2024-01-30T01:03:25;102263.53;;;0.51;88.98
84663;BME280;74891;59.208;18.220;2024-01-30T01:05:51;102318.19;;;0.80;88.78
84663;BME280;74891;59.208;18.220;2024-01-30T01:08:16;102334.00;;;0.77;88.79
84663;BME280;74891;59.208;18.220;2024-01-30T01:10:42;102327.66;;;0.70;88.28
84663;BME280;74891;59.208;18.220;2024-01-30T01:13:10;102328.63;;;0.69;89.02
84663;BME280;74891;59.208;18.220;2024-01-30T01:15:39;102318.16;;;0.71;88.27
84663;BME280;74891;59.208;18.220;2024-01-30T01:18:04;102319.28;;;0.78;88.05
84663;BME280;74891;59.208;18.220;2024-01-30T01:20:30;102332.13;;;0.79;88.46
84663;BME280;74891;59.208;18.220;2024-01-30T01:22:55;102319.53;;;0.75;88.11
84663;BME280;74891;59.208;18.220;2024-01-30T01:25:21;102309.97;;;0.75;87.99
84663;BME280;74891;59.208;18.220;2024-01-30T01:27:46;102320.09;;;0.78;88.08
84663;BME280;74891;59.208;18.220;2024-01-30T01:30:17;102320.22;;;0.77;87.80
84663;BME280;74891;59.208;18.220;2024-01-30T01:32:48;102328.25;;;0.74;87.53
84663;BME280;74891;59.208;18.220;2024-01-30T01:35:23;102323.44;;;0.69;88.22
84663;BME280;74891;59.208;18.220;2024-01-30T01:37:53;102324.97;;;0.72;87.36
84663;BME280;74891;59.208;18.220;2024-01-30T01:40:25;102327.91;;;0.67;87.84
84663;BME280;74891;59.208;18.220;2024-01-30T01:42:51;102331.72;;;0.63;88.20
84663;BME280;74891;59.208;18.220;2024-01-30T01:45:20;102266.34;;;0.16;87.30
84663;BME280;74891;59.208;18.220;2024-01-30T01:47:55;102327.00;;;0.57;87.86
84663;BME280;74891;59.208;18.220;2024-01-30T01:50:21;102317.84;;;0.53;87.68
84663;BME280;74891;59.208;18.220;2024-01-30T01:52:50;102318.66;;;0.53;87.97
84663;BME280;74891;59.208;18.220;2024-01-30T01:55:16;102295.75;;;0.37;88.38
84663;BME280;74891;59.208;18.220;2024-01-30T01:57:47;102326.13;;;0.47;87.89
84663;BME280;74891;59.208;18.220;2024-01-30T02:00:13;102323.31;;;0.38;87.97
84663;BME280;74891;59.208;18.220;2024-01-30T02:02:43;102319.09;;;0.26;87.86
84663;BME280;74891;59.208;18.220;2024-01-30T02:05:10;102311.56;;;0.23;88.03
84663;BME280;74891;59.208;18.220;2024-01-30T02:07:39;102317.22;;;0.28;87.99
84663;BME280;74891;59.208;18.220;2024-01-30T02:10:05;102313.91;;;0.26;88.53
84663;BME280;74891;59.208;18.220;2024-01-30T02:12:33;102267.34;;;0.04;88.29
84663;BME280;74891;59.208;18.220;2024-01-30T02:15:02;102306.38;;;0.23;88.04
84663;BME280;74891;59.208;18.220;2024-01-30T02:17:27;102307.13;;;0.14;88.17
84663;BME280;74891;59.208;18.220;2024-01-30T02:19:53;102281.22;;;0.03;88.16
84663;BME280;74891;59.208;18.220;2024-01-30T02:22:20;102306.53;;;0.10;87.85
84663;BME280;74891;59.208;18.220;2024-01-30T02:24:45;102293.00;;;0.07;87.98
84663;BME280;74891;59.208;18.220;2024-01-30T02:27:11;102281.13;;;-0.07;87.77
84663;BME280;74891;59.208;18.220;2024-01-30T02:29:39;102272.31;;;-0.16;88.18
84663;BME280;74891;59.208;18.220;2024-01-30T02:32:05;102280.78;;;-0.14;88.07
84663;BME280;74891;59.208;18.220;2024-01-30T02:34:31;102281.72;;;-0.15;88.49
84663;BME280;74891;59.208;18.220;2024-01-30T02:36:56;102296.09;;;-0.11;88.48
84663;BME280;74891;59.208;18.220;2024-01-30T02:39:22;102310.44;;;-0.07;88.46
84663;BME280;74891;59.208;18.220;2024-01-30T02:41:47;102310.53;;;-0.08;88.28
84663;BME280;74891;59.208;18.220;2024-01-30T02:44:13;102314.91;;;-0.09;87.67
84663;BME280;74891;59.208;18.220;2024-01-30T02:46:41;102315.72;;;-0.08;87.85
84663;BME280;74891;59.208;18.220;2024-01-30T02:49:06;102294.09;;;-0.18;87.02
84663;BME280;74891;59.208;18.220;2024-01-30T02:51:32;102310.22;;;-0.15;87.44
84663;BME280;74891;59.208;18.220;2024-01-30T02:53:57;102300.19;;;-0.19;87.57
84663;BME280;74891;59.208;18.220;2024-01-30T02:56:23;102302.56;;;-0.28;87.15
84663;BME280;74891;59.208;18.220;2024-01-30T02:58:48;102307.38;;;-0.23;87.45
84663;BME280;74891;59.208;18.220;2024-01-30T03:01:13;102299.38;;;-0.31;86.95
84663;BME280;74891;59.208;18.220;2024-01-30T03:03:44;102299.03;;;-0.27;87.29
84663;BME280;74891;59.208;18.220;2024-01-30T03:06:13;102255.16;;;-0.51;87.73
84663;BME280;74891;59.208;18.220;2024-01-30T03:08:43;102299.72;;;-0.25;87.86
84663;BME280;74891;59.208;18.220;2024-01-30T03:11:08;102288.09;;;-0.30;87.29
84663;BME280;74891;59.208;18.220;2024-01-30T03:13:37;102309.88;;;-0.21;87.48
84663;BME280;74891;59.208;18.220;2024-01-30T03:16:02;102301.97;;;-0.20;87.15
84663;BME280;74891;59.208;18.220;2024-01-30T03:18:28;102306.69;;;-0.25;87.59
84663;BME280;74891;59.208;18.220;2024-01-30T03:20:53;102304.31;;;-0.28;86.87
84663;BME280;74891;59.208;18.220;2024-01-30T03:23:19;102303.97;;;-0.24;87.29
84663;BME280;74891;59.208;18.220;2024-01-30T03:25:44;102297.50;;;-0.29;86.78
84663;BME280;74891;59.208;18.220;2024-01-30T03:28:09;102305.53;;;-0.32;87.16
84663;BME280;74891;59.208;18.220;2024-01-30T03:30:40;102238.34;;;-0.79;87.37
84663;BME280;74891;59.208;18.220;2024-01-30T03:33:08;102304.09;;;-0.36;87.34
84663;BME280;74891;59.208;18.220;2024-01-30T03:35:38;102313.25;;;-0.43;87.60
84663;BME280;74891;59.208;18.220;2024-01-30T03:38:03;102315.72;;;-0.53;87.06
84663;BME280;74891;59.208;18.220;2024-01-30T03:40:29;102320.91;;;-0.53;87.68
84663;BME280;74891;59.208;18.220;2024-01-30T03:42:54;102311.63;;;-0.56;87.89
84663;BME280;74891;59.208;18.220;2024-01-30T03:45:20;102258.31;;;-0.92;87.56
84663;BME280;74891;59.208;18.220;2024-01-30T03:47:45;102315.59;;;-0.52;87.34
84663;BME280;74891;59.208;18.220;2024-01-30T03:50:10;102318.31;;;-0.53;87.58
84663;BME280;74891;59.208;18.220;2024-01-30T03:52:46;102317.38;;;-0.52;87.90
84663;BME280;74891;59.208;18.220;2024-01-30T03:55:14;102291.84;;;-0.68;87.90
84663;BME280;74891;59.208;18.220;2024-01-30T03:57:40;102321.88;;;-0.54;87.99
84663;BME280;74891;59.208;18.220;2024-01-30T04:00:06;102327.13;;;-0.56;87.74
84663;BME280;74891;59.208;18.220;2024-01-30T04:02:32;102326.19;;;-0.55;87.95
84663;BME280;74891;59.208;18.220;2024-01-30T04:04:57;102330.31;;;-0.52;87.92
84663;BME280;74891;59.208;18.220;2024-01-30T04:07:23;102325.38;;;-0.55;87.81
84663;BME280;74891;59.208;18.220;2024-01-30T04:09:49;102329.38;;;-0.51;87.66
84663;BME280;74891;59.208;18.220;2024-01-30T04:12:14;102327.63;;;-0.51;88.21
84663;BME280;74891;59.208;18.220;2024-01-30T04:14:40;102328.78;;;-0.55;88.21
84663;BME280;74891;59.208;18.220;2024-01-30T04:17:05;102325.50;;;-0.57;88.00
84663;BME280;74891;59.208;18.220;2024-01-30T04:19:37;102334.31;;;-0.48;87.59
84663;BME280;74891;59.208;18.220;2024-01-30T04:22:02;102330.78;;;-0.47;87.62
84663;BME280;74891;59.208;18.220;2024-01-30T04:24:28;102320.56;;;-0.49;87.84
84663;BME280;74891;59.208;18.220;2024-01-30T04:26:53;102323.84;;;-0.58;87.66
84663;BME280;74891;59.208;18.220;2024-01-30T04:29:19;102281.13;;;-0.86;87.77
84663;BME280;74891;59.208;18.220;2024-01-30T04:31:45;102330.78;;;-0.58;87.85
84663;BME280;74891;59.208;18.220;2024-01-30T04:34:10;102330.44;;;-0.54;87.85
84663;BME280;74891;59.208;18.220;2024-01-30T04:36:36;102333.59;;;-0.50;87.65
84663;BME280;74891;59.208;18.220;2024-01-30T04:39:04;102325.63;;;-0.47;88.22
84663;BME280;74891;59.208;18.220;2024-01-30T04:41:38;102334.09;;;-0.45;87.59
84663;BME280;74891;59.208;18.220;2024-01-30T04:44:06;102317.03;;;-0.48;87.60
84663;BME280;74891;59.208;18.220;2024-01-30T04:46:32;102325.28;;;-0.42;87.35
84663;BME280;74891;59.208;18.220;2024-01-30T04:48:59;102322.91;;;-0.46;88.28
84663;BME280;74891;59.208;18.220;2024-01-30T04:51:25;102296.19;;;-0.69;87.60
84663;BME280;74891;59.208;18.220;2024-01-30T04:53:50;102329.25;;;-0.50;87.67
84663;BME280;74891;59.208;18.220;2024-01-30T04:56:16;102332.91;;;-0.52;87.83
84663;BME280;74891;59.208;18.220;2024-01-30T04:58:41;102320.09;;;-0.54;87.65
84663;BME280;74891;59.208;18.220;2024-01-30T05:01:09;102280.44;;;-0.77;87.95
84663;BME280;74891;59.208;18.220;2024-01-30T05:03:37;102324.78;;;-0.48;87.87
84663;BME280;74891;59.208;18.220;2024-01-30T05:06:06;102313.72;;;-0.50;88.40
84663;BME280;74891;59.208;18.220;2024-01-30T05:08:32;102321.25;;;-0.47;88.10
84663;BME280;74891;59.208;18.220;2024-01-30T05:11:00;102321.72;;;-0.41;87.91
84663;BME280;74891;59.208;18.220;2024-01-30T05:13:25;102328.44;;;-0.39;87.95
84663;BME280;74891;59.208;18.220;2024-01-30T05:15:52;102265.97;;;-0.79;88.11
84663;BME280;74891;59.208;18.220;2024-01-30T05:18:17;102323.16;;;-0.37;88.12
84663;BME280;74891;59.208;18.220;2024-01-30T05:20:45;102315.84;;;-0.43;88.62
84663;BME280;74891;59.208;18.220;2024-01-30T05:23:13;102304.34;;;-0.51;87.75
84663;BME280;74891;59.208;18.220;2024-01-30T05:25:39;102312.56;;;-0.46;88.19
84663;BME280;74891;59.208;18.220;2024-01-30T05:28:10;102315.63;;;-0.40;88.45
84663;BME280;74891;59.208;18.220;2024-01-30T05:30:40;102285.28;;;-0.61;88.57
84663;BME280;74891;59.208;18.220;2024-01-30T05:33:05;102324.09;;;-0.38;88.38
84663;BME280;74891;59.208;18.220;2024-01-30T05:35:35;102324.69;;;-0.35;88.06
84663;BME280;74891;59.208;18.220;2024-01-30T05:38:03;102285.97;;;-0.59;88.47
84663;BME280;74891;59.208;18.220;2024-01-30T05:40:29;102325.16;;;-0.30;87.84
84663;BME280;74891;59.208;18.220;2024-01-30T05:42:55;102324.44;;;-0.32;88.40
84663;BME280;74891;59.208;18.220;2024-01-30T05:45:23;102308.06;;;-0.43;87.98
84663;BME280;74891;59.208;18.220;2024-01-30T05:47:48;102332.69;;;-0.27;88.17
84663;BME280;74891;59.208;18.220;2024-01-30T05:50:16;102330.09;;;-0.27;88.65
84663;BME280;74891;59.208;18.220;2024-01-30T05:52:47;102326.47;;;-0.24;87.90
84663;BME280;74891;59.208;18.220;2024-01-30T05:55:13;102328.56;;;-0.29;88.85
84663;BME280;74891;59.208;18.220;2024-01-30T05:57:38;102322.91;;;-0.34;88.60
84663;BME280;74891;59.208;18.220;2024-01-30T06:00:07;102263.50;;;-0.70;88.68
84663;BME280;74891;59.208;18.220;2024-01-30T06:02:36;102326.69;;;-0.27;88.20
84663;BME280;74891;59.208;18.220;2024-01-30T06:05:02;102324.22;;;-0.29;88.09
84663;BME280;74891;59.208;18.220;2024-01-30T06:07:28;102326.69;;;-0.27;88.17
84663;BME280;74891;59.208;18.220;2024-01-30T06:09:53;102323.88;;;-0.24;88.83
84663;BME280;74891;59.208;18.220;2024-01-30T06:12:19;102320.34;;;-0.23;88.28
84663;BME280;74891;59.208;18.220;2024-01-30T06:14:46;102317.50;;;-0.20;88.26
84663;BME280;74891;59.208;18.220;2024-01-30T06:17:12;102314.19;;;-0.22;88.17
84663;BME280;74891;59.208;18.220;2024-01-30T06:19:40;102314.19;;;-0.22;88.82
84663;BME280;74891;59.208;18.220;2024-01-30T06:22:12;102309.41;;;-0.27;88.08
84663;BME280;74891;59.208;18.220;2024-01-30T06:24:39;102319.63;;;-0.25;88.50
84663;BME280;74891;59.208;18.220;2024-01-30T06:27:05;102322.22;;;-0.25;88.63
84663;BME280;74891;59.208;18.220;2024-01-30T06:29:30;102321.03;;;-0.21;88.75
84663;BME280;74891;59.208;18.220;2024-01-30T06:31:56;102321.28;;;-0.24;89.17
84663;BME280;74891;59.208;18.220;2024-01-30T06:34:22;102327.03;;;-0.20;88.98
84663;BME280;74891;59.208;18.220;2024-01-30T06:36:47;102319.38;;;-0.22;89.11
84663;BME280;74891;59.208;18.220;2024-01-30T06:39:13;102314.44;;;-0.25;88.83
84663;BME280;74891;59.208;18.220;2024-01-30T06:41:41;102319.63;;;-0.25;89.28
84663;BME280;74891;59.208;18.220;2024-01-30T06:44:07;102313.03;;;-0.29;89.38
84663;BME280;74891;59.208;18.220;2024-01-30T06:46:33;102280.09;;;-0.50;89.09
84663;BME280;74891;59.208;18.220;2024-01-30T06:48:59;102301.03;;;-0.30;89.08
84663;BME280;74891;59.208;18.220;2024-01-30T06:51:24;102305.03;;;-0.26;89.57
84663;BME280;74891;59.208;18.220;2024-01-30T06:53:50;102308.09;;;-0.32;89.32
84663;BME280;74891;59.208;18.220;2024-01-30T06:56:16;102304.66;;;-0.33;89.03
84663;BME280;74891;59.208;18.220;2024-01-30T06:58:49;102317.75;;;-0.23;89.35
84663;BME280;74891;59.208;18.220;2024-01-30T07:01:15;102321.28;;;-0.24;89.30
84663;BME280;74891;59.208;18.220;2024-01-30T07:03:43;102312.47;;;-0.21;89.07
84663;BME280;74891;59.208;18.220;2024-01-30T07:06:10;102321.03;;;-0.21;88.99
84663;BME280;74891;59.208;18.220;2024-01-30T07:08:38;102314.91;;;-0.31;89.10
84663;BME280;74891;59.208;18.220;2024-01-30T07:11:07;102319.50;;;-0.35;89.28
84663;BME280;74891;59.208;18.220;2024-01-30T07:13:34;102326.22;;;-0.32;89.61
84663;BME280;74891;59.208;18.220;2024-01-30T07:15:59;102313.03;;;-0.29;89.93
84663;BME280;74891;59.208;18.220;2024-01-30T07:18:25;102305.38;;;-0.31;89.48
84663;BME280;74891;59.208;18.220;2024-01-30T07:20:50;102299.16;;;-0.28;89.81
84663;BME280;74891;59.208;18.220;2024-01-30T07:23:16;102308.09;;;-0.21;89.98
84663;BME280;74891;59.208;18.220;2024-01-30T07:25:46;102307.16;;;-0.20;89.43
84663;BME280;74891;59.208;18.220;2024-01-30T07:28:14;102300.66;;;-0.14;89.23
84663;BME280;74891;59.208;18.220;2024-01-30T07:30:42;102293.84;;;-0.15;89.65
84663;BME280;74891;59.208;18.220;2024-01-30T07:33:10;102297.25;;;-0.15;89.14
84663;BME280;74891;59.208;18.220;2024-01-30T07:35:39;102303.50;;;-0.17;89.84
84663;BME280;74891;59.208;18.220;2024-01-30T07:38:06;102289.97;;;-0.21;89.96
84663;BME280;74891;59.208;18.220;2024-01-30T07:40:34;102298.53;;;-0.09;89.56
84663;BME280;74891;59.208;18.220;2024-01-30T07:42:59;102293.94;;;-0.06;89.82
84663;BME280;74891;59.208;18.220;2024-01-30T07:45:26;102300.53;;;-0.02;88.94
84663;BME280;74891;59.208;18.220;2024-01-30T07:47:53;102295.38;;;-0.02;88.75
84663;BME280;74891;59.208;18.220;2024-01-30T07:50:18;102303.84;;;0.01;88.94
84663;BME280;74891;59.208;18.220;2024-01-30T07:52:46;102311.22;;;0.05;88.87
84663;BME280;74891;59.208;18.220;2024-01-30T07:55:14;102309.34;;;0.07;88.88
84663;BME280;74891;59.208;18.220;2024-01-30T07:57:44;102302.41;;;0.08;88.81
84663;BME280;74891;59.208;18.220;2024-01-30T08:00:13;102309.47;;;0.17;88.86
84663;BME280;74891;59.208;18.220;2024-01-30T08:02:41;102309.22;;;0.20;88.94
84663;BME280;74891;59.208;18.220;2024-01-30T08:05:07;102310.84;;;0.21;88.09
84663;BME280;74891;59.208;18.220;2024-01-30T08:07:34;102304.84;;;0.20;88.32
84663;BME280;74891;59.208;18.220;2024-01-30T08:10:00;102294.38;;;0.11;88.45
84663;BME280;74891;59.208;18.220;2024-01-30T08:12:25;102269.47;;;-0.02;88.60
84663;BME280;74891;59.208;18.220;2024-01-30T08:14:50;102294.03;;;0.15;88.98
84663;BME280;74891;59.208;18.220;2024-01-30T08:17:18;102290.13;;;0.21;88.44
84663;BME280;74891;59.208;18.220;2024-01-30T08:19:43;102285.91;;;0.20;88.99
84663;BME280;74891;59.208;18.220;2024-01-30T08:22:18;102285.66;;;0.23;88.74
84663;BME280;74891;59.208;18.220;2024-01-30T08:24:46;102273.66;;;0.22;88.82
84663;BME280;74891;59.208;18.220;2024-01-30T08:27:11;102272.47;;;0.26;89.11
84663;BME280;74891;59.208;18.220;2024-01-30T08:29:39;102247.63;;;0.24;89.13
84663;BME280;74891;59.208;18.220;2024-01-30T08:32:11;102254.06;;;0.29;89.06
84663;BME280;74891;59.208;18.220;2024-01-30T08:34:37;102252.91;;;0.33;89.08
84663;BME280;74891;59.208;18.220;2024-01-30T08:37:03;102257.00;;;0.36;88.92
84663;BME280;74891;59.208;18.220;2024-01-30T08:39:28;102249.09;;;0.37;88.03
84663;BME280;74891;59.208;18.220;2024-01-30T08:41:54;102255.69;;;0.41;88.81
84663;BME280;74891;59.208;18.220;2024-01-30T08:44:19;102256.41;;;0.43;88.57
84663;BME280;74891;59.208;18.220;2024-01-30T08:46:48;102262.50;;;0.42;88.40
84663;BME280;74891;59.208;18.220;2024-01-30T08:49:16;102259.66;;;0.46;88.51
84663;BME280;74891;59.208;18.220;2024-01-30T08:51:42;102268.84;;;0.50;89.29
84663;BME280;74891;59.208;18.220;2024-01-30T08:54:07;102273.91;;;0.51;88.58
84663;BME280;74891;59.208;18.220;2024-01-30T08:56:34;102279.53;;;0.56;89.13
84663;BME280;74891;59.208;18.220;2024-01-30T08:58:59;102272.56;;;0.57;88.25
84663;BME280;74891;59.208;18.220;2024-01-30T09:01:25;102249.19;;;0.47;88.51
84663;BME280;74891;59.208;18.220;2024-01-30T09:03:51;102266.91;;;0.63;88.18
84663;BME280;74891;59.208;18.220;2024-01-30T09:06:16;102269.81;;;0.70;88.79
84663;BME280;74891;59.208;18.220;2024-01-30T09:08:41;102276.28;;;0.75;89.10
84663;BME280;74891;59.208;18.220;2024-01-30T09:11:11;102277.69;;;0.79;89.11
84663;BME280;74891;59.208;18.220;2024-01-30T09:13:40;102274.75;;;0.73;88.19
84663;BME280;74891;59.208;18.220;2024-01-30T09:16:09;102237.75;;;0.50;88.98
84663;BME280;74891;59.208;18.220;2024-01-30T09:18:34;102267.31;;;0.79;89.19
84663;BME280;74891;59.208;18.220;2024-01-30T09:21:03;102268.81;;;0.82;88.43
84663;BME280;74891;59.208;18.220;2024-01-30T09:23:29;102271.72;;;0.88;88.34
84663;BME280;74891;59.208;18.220;2024-01-30T09:25:55;102275.47;;;0.96;88.33
84663;BME280;74891;59.208;18.220;2024-01-30T09:28:20;102273.31;;;1.01;88.93
84663;BME280;74891;59.208;18.220;2024-01-30T09:30:50;102257.88;;;0.99;88.22
84663;BME280;74891;59.208;18.220;2024-01-30T09:33:18;102218.88;;;0.80;88.92
84663;BME280;74891;59.208;18.220;2024-01-30T09:35:43;102239.66;;;0.89;88.40
84663;BME280;74891;59.208;18.220;2024-01-30T09:38:09;102266.16;;;1.14;88.16
84663;BME280;74891;59.208;18.220;2024-01-30T09:40:35;102263.56;;;1.14;88.38
84663;BME280;74891;59.208;18.220;2024-01-30T09:43:17;102257.59;;;1.23;88.43
84663;BME280;74891;59.208;18.220;2024-01-30T09:45:46;102257.34;;;1.26;87.98
84663;BME280;74891;59.208;18.220;2024-01-30T09:48:13;102247.78;;;1.27;88.71
84663;BME280;74891;59.208;18.220;2024-01-30T09:50:38;102247.13;;;1.35;88.37
84663;BME280;74891;59.208;18.220;2024-01-30T09:53:07;102244.28;;;1.38;88.01
84663;BME280;74891;59.208;18.220;2024-01-30T09:55:33;102256.88;;;1.42;89.22
84663;BME280;74891;59.208;18.220;2024-01-30T09:58:00;102205.81;;;1.22;88.43
84663;BME280;74891;59.208;18.220;2024-01-30T10:00:25;102191.78;;;1.24;87.75
84663;BME280;74891;59.208;18.220;2024-01-30T10:02:52;102232.72;;;1.51;88.47
84663;BME280;74891;59.208;18.220;2024-01-30T10:05:19;102229.47;;;1.59;88.71
84663;BME280;74891;59.208;18.220;2024-01-30T10:07:55;102220.03;;;1.68;88.65
84663;BME280;74891;59.208;18.220;2024-01-30T10:10:23;102240.69;;;1.79;89.07
84663;BME280;74891;59.208;18.220;2024-01-30T10:12:49;102234.31;;;1.83;88.76
84663;BME280;74891;59.208;18.220;2024-01-30T10:15:18;102239.78;;;1.90;89.33
84663;BME280;74891;59.208;18.220;2024-01-30T10:17:47;102243.75;;;1.94;88.88
84663;BME280;74891;59.208;18.220;2024-01-30T10:20:15;102225.31;;;1.97;89.24
84663;BME280;74891;59.208;18.220;2024-01-30T10:22:41;102232.81;;;2.00;88.95
84663;BME280;74891;59.208;18.220;2024-01-30T10:25:11;102227.09;;;2.06;88.80
84663;BME280;74891;59.208;18.220;2024-01-30T10:27:39;102210.56;;;2.07;88.73
84663;BME280;74891;59.208;18.220;2024-01-30T10:30:11;102211.13;;;2.20;88.69
84663;BME280;74891;59.208;18.220;2024-01-30T10:32:36;102211.53;;;2.26;89.22
84663;BME280;74891;59.208;18.220;2024-01-30T10:35:03;102209.47;;;2.29;88.73
84663;BME280;74891;59.208;18.220;2024-01-30T10:37:31;102203.19;;;2.32;89.13
84663;BME280;74891;59.208;18.220;2024-01-30T10:40:02;102209.88;;;2.34;89.29
84663;BME280;74891;59.208;18.220;2024-01-30T10:42:31;102210.97;;;2.32;89.71
84663;BME280;74891;59.208;18.220;2024-01-30T10:45:02;102211.38;;;2.37;89.28
84663;BME280;74891;59.208;18.220;2024-01-30T10:47:34;102207.13;;;2.36;89.89
84663;BME280;74891;59.208;18.220;2024-01-30T10:50:02;102149.84;;;1.98;90.01
84663;BME280;74891;59.208;18.220;2024-01-30T10:52:29;102194.69;;;2.30;89.81
84663;BME280;74891;59.208;18.220;2024-01-30T10:54:58;102207.00;;;2.37;89.81
84663;BME280;74891;59.208;18.220;2024-01-30T10:57:25;102163.13;;;2.15;89.96
84663;BME280;74891;59.208;18.220;2024-01-30T10:59:56;102152.84;;;2.13;90.65
84663;BME280;74891;59.208;18.220;2024-01-30T11:02:23;102183.72;;;2.36;90.40
84663;BME280;74891;59.208;18.220;2024-01-30T11:04:49;102183.47;;;2.39;90.32
84663;BME280;74891;59.208;18.220;2024-01-30T11:07:16;102188.13;;;2.45;90.55
84663;BME280;74891;59.208;18.220;2024-01-30T11:09:51;102144.63;;;2.28;90.62
84663;BME280;74891;59.208;18.220;2024-01-30T11:12:21;102165.38;;;2.57;90.80
84663;BME280;74891;59.208;18.220;2024-01-30T11:14:48;102161.28;;;2.54;90.57
84663;BME280;74891;59.208;18.220;2024-01-30T11:17:15;102156.06;;;2.64;90.69
84663;BME280;74891;59.208;18.220;2024-01-30T11:19:43;102143.19;;;2.62;90.73
84663;BME280;74891;59.208;18.220;2024-01-30T11:22:13;102115.31;;;2.45;90.65
84663;BME280;74891;59.208;18.220;2024-01-30T11:24:41;102157.28;;;2.70;90.24
84663;BME280;74891;59.208;18.220;2024-01-30T11:27:10;102165.59;;;2.73;90.25
84663;BME280;74891;59.208;18.220;2024-01-30T11:29:39;102153.31;;;2.65;90.25
84663;BME280;74891;59.208;18.220;2024-01-30T11:32:16;102153.19;;;2.67;90.06
84663;BME280;74891;59.208;18.220;2024-01-30T11:34:47;102119.84;;;2.43;90.13
84663;BME280;74891;59.208;18.220;2024-01-30T11:37:14;102117.25;;;2.43;90.34
84663;BME280;74891;59.208;18.220;2024-01-30T11:39:41;102116.97;;;2.46;90.43
84663;BME280;74891;59.208;18.220;2024-01-30T11:42:08;102142.91;;;2.65;90.20
84663;BME280;74891;59.208;18.220;2024-01-30T11:44:34;102136.47;;;2.70;90.34
84663;BME280;74891;59.208;18.220;2024-01-30T11:47:00;102134.28;;;2.75;90.20
84663;BME280;74891;59.208;18.220;2024-01-30T11:49:26;102127.84;;;2.69;90.42
84663;BME280;74891;59.208;18.220;2024-01-30T11:51:52;102127.31;;;2.65;90.98
84663;BME280;74891;59.208;18.220;2024-01-30T11:54:18;102130.06;;;2.64;90.74
84663;BME280;74891;59.208;18.220;2024-01-30T11:56:50;102131.16;;;2.61;90.63
84663;BME280;74891;59.208;18.220;2024-01-30T11:59:15;102121.44;;;2.63;90.32
84663;BME280;74891;59.208;18.220;2024-01-30T12:01:46;102104.06;;;2.54;90.54
84663;BME280;74891;59.208;18.220;2024-01-30T12:04:21;102078.53;;;2.40;90.55
84663;BME280;74891;59.208;18.220;2024-01-30T12:06:52;102127.59;;;2.62;90.25
84663;BME280;74891;59.208;18.220;2024-01-30T12:09:17;102089.06;;;2.38;90.57
84663;BME280;74891;59.208;18.220;2024-01-30T12:11:47;102109.03;;;2.48;90.38
84663;BME280;74891;59.208;18.220;2024-01-30T12:14:13;102109.28;;;2.54;90.78
84663;BME280;74891;59.208;18.220;2024-01-30T12:16:41;102099.03;;;2.53;90.45
84663;BME280;74891;59.208;18.220;2024-01-30T12:19:07;101998.09;;;1.82;90.69
84663;BME280;74891;59.208;18.220;2024-01-30T12:21:34;102091.25;;;2.43;90.47
84663;BME280;74891;59.208;18.220;2024-01-30T12:24:00;102111.47;;;2.59;90.47
84663;BME280;74891;59.208;18.220;2024-01-30T12:26:26;102110.66;;;2.58;90.87
84663;BME280;74891;59.208;18.220;2024-01-30T12:28:54;102104.06;;;2.54;91.37
84663;BME280;74891;59.208;18.220;2024-01-30T12:31:28;102100.25;;;2.58;90.83
84663;BME280;74891;59.208;18.220;2024-01-30T12:33:54;102094.75;;;2.61;90.86
84663;BME280;74891;59.208;18.220;2024-01-30T12:36:21;102055.16;;;2.40;90.92
84663;BME280;74891;59.208;18.220;2024-01-30T12:38:51;102073.53;;;2.66;90.88
84663;BME280;74891;59.208;18.220;2024-01-30T12:41:19;102069.28;;;2.65;90.81
84663;BME280;74891;59.208;18.220;2024-01-30T12:43:45;102067.94;;;2.61;90.79